createdAt,value
2019-02-22T00:01:12.545Z,102781.84
2019-02-22T00:02:27.697Z,102784.03
2019-02-22T00:03:32.748Z,102781.44
2019-02-22T00:04:37.741Z,102791.31
2019-02-22T00:05:43.179Z,102794.44
2019-02-22T00:06:48.171Z,102794.91
2019-02-22T00:07:53.210Z,102796.70
2019-02-22T00:08:58.742Z,102792.24
2019-02-22T00:10:04.033Z,102794.03
2019-02-22T00:11:09.923Z,102796.30
2019-02-22T00:12:15.165Z,102794.14
2019-02-22T00:13:20.635Z,102791.48
2019-02-22T00:14:26.286Z,102791.54
2019-02-22T00:15:32.851Z,102787.09
2019-02-22T00:16:37.939Z,102789.65
2019-02-22T00:17:43.000Z,102792.17
2019-02-22T00:18:47.991Z,102789.52
2019-02-22T00:19:52.959Z,102789.88
2019-02-22T00:20:57.990Z,102790.28
2019-02-22T00:22:03.109Z,102788.48
2019-02-22T00:23:08.189Z,102798.27
2019-02-22T00:24:13.333Z,102799.19
2019-02-22T00:25:18.390Z,102795.37
2019-02-22T00:26:23.380Z,102801.61
2019-02-22T00:27:28.867Z,102801.71
2019-02-22T00:28:33.960Z,102806.56
2019-02-22T00:29:39.569Z,102806.17
2019-02-22T00:30:44.572Z,102802.18
2019-02-22T00:31:49.592Z,102804.38
2019-02-22T00:32:54.623Z,102806.63
2019-02-22T00:33:59.705Z,102807.59
2019-02-22T00:35:04.882Z,102809.30
2019-02-22T00:36:09.999Z,102812.25
2019-02-22T00:37:15.415Z,102819.61
2019-02-22T00:38:20.356Z,102816.48
2019-02-22T00:39:25.395Z,102813.75
2019-02-22T00:40:31.016Z,102816.78
2019-02-22T00:41:36.042Z,102808.80
2019-02-22T00:42:41.054Z,102810.06
2019-02-22T00:43:46.474Z,102812.66
2019-02-22T00:44:51.424Z,102817.02
2019-02-22T00:45:56.865Z,102819.61
2019-02-22T00:47:02.486Z,102820.84
2019-02-22T00:48:07.846Z,102824.83
2019-02-22T00:49:12.839Z,102826.96
2019-02-22T00:50:18.088Z,102826.09
2019-02-22T00:51:23.233Z,102819.45
2019-02-22T00:52:28.649Z,102823.50
2019-02-22T00:53:33.694Z,102816.86
2019-02-22T00:54:38.769Z,102814.59
2019-02-22T00:55:43.827Z,102814.59
2019-02-22T00:56:49.179Z,102811.37
2019-02-22T00:57:54.123Z,102811.30
2019-02-22T00:58:59.378Z,102808.18
2019-02-22T01:00:04.634Z,102813.50
2019-02-22T01:01:09.712Z,102811.30
2019-02-22T01:02:14.847Z,102811.00
2019-02-22T01:03:20.431Z,102820.38
2019-02-22T01:04:25.362Z,102817.02
2019-02-22T01:05:30.300Z,102815.85
2019-02-22T01:06:35.696Z,102818.61
2019-02-22T01:07:40.701Z,102822.66
2019-02-22T01:08:45.758Z,102821.50
2019-02-22T01:09:50.806Z,102815.41
2019-02-22T01:10:55.791Z,102815.94
2019-02-22T01:12:01.198Z,102815.57
2019-02-22T01:13:06.249Z,102811.65
2019-02-22T01:14:11.294Z,102812.21
2019-02-22T01:15:16.375Z,102813.14
2019-02-22T01:16:21.377Z,102814.53
2019-02-22T01:17:26.621Z,102812.27
2019-02-22T01:18:32.221Z,102816.20
2019-02-22T01:19:37.134Z,102818.86
2019-02-22T01:20:53.731Z,102822.34
2019-02-22T01:21:49.345Z,102826.34
2019-02-22T01:22:54.508Z,102817.99
2019-02-22T01:23:59.906Z,102824.64
2019-02-22T01:25:05.525Z,102824.64
2019-02-22T01:26:11.145Z,102819.32
2019-02-22T01:27:16.248Z,102825.50
2019-02-22T01:28:21.308Z,102827.67
2019-02-22T01:29:26.436Z,102827.30
2019-02-22T01:30:31.772Z,102831.66
2019-02-22T01:31:36.847Z,102824.64
2019-02-22T01:32:41.823Z,102836.97
2019-02-22T01:33:46.847Z,102834.72
2019-02-22T01:34:51.875Z,102835.12
2019-02-22T01:35:56.843Z,102828.06
2019-02-22T01:37:02.238Z,102836.84
2019-02-22T01:38:07.363Z,102830.56
2019-02-22T01:39:12.430Z,102830.50
2019-02-22T01:40:17.815Z,102833.92
2019-02-22T01:41:22.880Z,102830.34
2019-02-22T01:42:27.864Z,102834.63
2019-02-22T01:43:33.546Z,102833.23
2019-02-22T01:44:38.600Z,102831.41
2019-02-22T01:45:43.743Z,102837.53
2019-02-22T01:46:49.039Z,102839.72
2019-02-22T01:47:54.422Z,102840.19
2019-02-22T01:48:59.382Z,102845.11
2019-02-22T01:50:04.707Z,102840.19
2019-02-22T01:51:09.981Z,102840.34
2019-02-22T01:52:14.899Z,102837.23
2019-02-22T01:53:19.957Z,102839.02
2019-02-22T01:54:24.952Z,102841.28
2019-02-22T01:55:30.017Z,102837.29
2019-02-22T01:56:35.023Z,102834.63
2019-02-22T01:57:40.411Z,102837.69
2019-02-22T01:58:48.920Z,102836.83
2019-02-22T01:59:53.716Z,102839.02
2019-02-22T02:00:58.944Z,102840.81
2019-02-22T02:02:04.057Z,102834.63
2019-02-22T02:03:09.421Z,102839.95
2019-02-22T02:04:14.533Z,102842.20
2019-02-22T02:05:19.648Z,102842.20
2019-02-22T02:06:24.671Z,102844.87
2019-02-22T02:07:29.713Z,102846.20
2019-02-22T02:08:34.698Z,102843.54
2019-02-22T02:09:39.706Z,102850.59
2019-02-22T02:10:53.919Z,102847.47
2019-02-22T02:11:51.728Z,102855.44
2019-02-22T02:12:56.806Z,102861.69
2019-02-22T02:14:02.093Z,102860.45
2019-02-22T02:15:08.188Z,102865.38
2019-02-22T02:16:13.283Z,102859.36
2019-02-22T02:17:18.635Z,102862.47
2019-02-22T02:18:24.111Z,102866.16
2019-02-22T02:19:29.093Z,102863.56
2019-02-22T02:20:34.106Z,102864.43
2019-02-22T02:21:39.043Z,102864.53
2019-02-22T02:22:47.840Z,102867.55
2019-02-22T02:23:53.184Z,102868.52
2019-02-22T02:24:58.911Z,102861.47
2019-02-22T02:26:04.035Z,102866.02
2019-02-22T02:27:09.170Z,102862.49
2019-02-22T02:28:14.209Z,102858.56
2019-02-22T02:29:19.279Z,102868.43
2019-02-22T02:30:24.976Z,102862.34
2019-02-22T02:31:29.906Z,102868.98
2019-02-22T02:32:35.257Z,102871.25
2019-02-22T02:33:40.372Z,102873.50
2019-02-22T02:34:45.564Z,102869.61
2019-02-22T02:35:50.638Z,102867.48
2019-02-22T02:36:55.619Z,102867.48
2019-02-22T02:38:00.750Z,102866.61
2019-02-22T02:39:07.533Z,102866.61
2019-02-22T02:40:12.642Z,102873.20
2019-02-22T02:41:17.687Z,102869.67
2019-02-22T02:42:22.751Z,102874.06
2019-02-22T02:43:27.759Z,102874.06
2019-02-22T02:44:32.727Z,102875.86
2019-02-22T02:45:37.735Z,102875.76
2019-02-22T02:46:43.133Z,102868.28
2019-02-22T02:47:48.122Z,102874.83
2019-02-22T02:48:53.140Z,102867.26
2019-02-22T02:49:58.173Z,102874.77
2019-02-22T02:51:03.353Z,102870.69
2019-02-22T02:52:08.830Z,102873.75
2019-02-22T02:53:14.327Z,102867.09
2019-02-22T02:54:19.325Z,102868.03
2019-02-22T02:55:32.402Z,102869.76
2019-02-22T02:56:37.452Z,102868.03
2019-02-22T02:57:42.746Z,102861.78
2019-02-22T02:58:47.879Z,102866.70
2019-02-22T02:59:53.214Z,102872.11
2019-02-22T03:00:58.434Z,102873.04
2019-02-22T03:02:05.132Z,102868.65
2019-02-22T03:03:10.213Z,102864.36
2019-02-22T03:04:15.275Z,102864.05
2019-02-22T03:05:22.305Z,102866.24
2019-02-22T03:06:35.424Z,102868.97
2019-02-22T03:07:42.035Z,102862.72
2019-02-22T03:08:47.487Z,102867.94
2019-02-22T03:09:52.840Z,102864.36
2019-02-22T03:10:57.889Z,102869.67
2019-02-22T03:12:03.303Z,102871.47
2019-02-22T03:13:08.378Z,102869.67
2019-02-22T03:14:13.822Z,102874.52
2019-02-22T03:15:19.557Z,102875.39
2019-02-22T03:16:24.556Z,102882.41
2019-02-22T03:17:29.592Z,102878.42
2019-02-22T03:18:35.339Z,102872.27
2019-02-22T03:19:40.417Z,102873.10
2019-02-22T03:20:45.353Z,102874.43
2019-02-22T03:21:51.021Z,102873.10
2019-02-22T03:22:56.045Z,102872.17
2019-02-22T03:24:01.043Z,102872.17
2019-02-22T03:25:06.441Z,102879.62
2019-02-22T03:26:11.856Z,102874.67
2019-02-22T03:27:16.882Z,102879.12
2019-02-22T03:28:21.918Z,102876.47
2019-02-22T03:29:26.893Z,102881.78
2019-02-22T03:30:32.248Z,102886.64
2019-02-22T03:31:37.311Z,102883.11
2019-02-22T03:32:42.505Z,102892.83
2019-02-22T03:33:47.598Z,102896.34
2019-02-22T03:34:52.611Z,102893.28
2019-02-22T03:35:57.983Z,102892.98
2019-02-22T03:37:03.286Z,102890.32
2019-02-22T03:38:08.670Z,102897.98
2019-02-22T03:39:13.642Z,102902.91
2019-02-22T03:40:18.716Z,102900.80
2019-02-22T03:41:32.260Z,102897.28
2019-02-22T03:42:31.050Z,102901.67
2019-02-22T03:43:36.210Z,102900.70
2019-02-22T03:44:41.302Z,102898.45
2019-02-22T03:45:46.301Z,102902.50
2019-02-22T03:46:51.540Z,102892.36
2019-02-22T03:47:56.700Z,102895.48
2019-02-22T03:49:02.179Z,102895.08
2019-02-22T03:50:07.568Z,102900.40
2019-02-22T03:51:12.542Z,102898.30
2019-02-22T03:52:24.602Z,102898.77
2019-02-22T03:53:34.319Z,102899.69
2019-02-22T03:54:39.309Z,102900.95
2019-02-22T03:55:44.759Z,102905.31
2019-02-22T03:56:49.887Z,102905.31
2019-02-22T03:57:54.994Z,102906.64
2019-02-22T03:59:00.055Z,102911.50
2019-02-22T04:00:05.538Z,102907.05
2019-02-22T04:01:10.877Z,102906.58
2019-02-22T04:02:16.011Z,102911.80
2019-02-22T04:03:20.960Z,102911.80
2019-02-22T04:04:26.155Z,102914.47
2019-02-22T04:05:33.275Z,102916.75
2019-02-22T04:06:38.499Z,102916.75
2019-02-22T04:07:43.573Z,102918.45
2019-02-22T04:08:48.828Z,102915.42
2019-02-22T04:09:53.899Z,102914.09
2019-02-22T04:10:59.336Z,102923.00
2019-02-22T04:12:04.451Z,102923.05
2019-02-22T04:13:12.796Z,102928.00
2019-02-22T04:14:18.182Z,102921.42
2019-02-22T04:15:23.174Z,102929.02
2019-02-22T04:16:28.150Z,102937.37
2019-02-22T04:17:33.159Z,102940.02
2019-02-22T04:18:38.321Z,102934.65
2019-02-22T04:19:43.399Z,102936.34
2019-02-22T04:20:48.416Z,102936.28
2019-02-22T04:21:53.723Z,102940.73
2019-02-22T04:22:58.686Z,102937.22
2019-02-22T04:24:03.754Z,102939.88
2019-02-22T04:25:08.907Z,102942.99
2019-02-22T04:26:14.310Z,102939.88
2019-02-22T04:27:19.252Z,102936.84
2019-02-22T04:28:24.520Z,102946.20
2019-02-22T04:29:29.830Z,102949.73
2019-02-22T04:30:37.846Z,102950.66
2019-02-22T04:31:41.810Z,102947.63
2019-02-22T04:32:46.725Z,102957.30
2019-02-22T04:33:51.751Z,102955.97
2019-02-22T04:34:56.750Z,102949.88
2019-02-22T04:36:01.700Z,102953.41
2019-02-22T04:37:06.738Z,102941.34
2019-02-22T04:38:11.688Z,102941.34
2019-02-22T04:39:16.709Z,102953.47
2019-02-22T04:40:21.707Z,102949.08
2019-02-22T04:41:26.658Z,102951.36
2019-02-22T04:42:31.805Z,102955.35
2019-02-22T04:43:36.719Z,102954.02
2019-02-22T04:44:50.560Z,102946.91
2019-02-22T04:45:56.332Z,102946.91
2019-02-22T04:47:01.339Z,102949.48
2019-02-22T04:48:06.322Z,102948.24
2019-02-22T04:49:11.781Z,102952.60
2019-02-22T04:50:17.557Z,102949.88
2019-02-22T04:51:22.493Z,102950.75
2019-02-22T04:52:29.950Z,102957.86
2019-02-22T04:53:35.388Z,102955.72
2019-02-22T04:54:40.387Z,102953.16
2019-02-22T04:55:45.429Z,102957.20
2019-02-22T04:56:50.513Z,102952.28
2019-02-22T04:57:55.815Z,102953.06
2019-02-22T04:59:01.145Z,102957.05
2019-02-22T05:00:06.689Z,102955.72
2019-02-22T05:01:11.675Z,102957.55
2019-02-22T05:02:16.722Z,102957.91
2019-02-22T05:03:21.834Z,102955.66
2019-02-22T05:04:26.959Z,102956.06
2019-02-22T05:05:32.055Z,102959.95
2019-02-22T05:06:37.232Z,102959.95
2019-02-22T05:07:42.545Z,102954.49
2019-02-22T05:08:48.121Z,102958.57
2019-02-22T05:09:53.095Z,102964.20
2019-02-22T05:10:58.383Z,102963.27
2019-02-22T05:12:10.934Z,102968.59
2019-02-22T05:13:10.182Z,102972.95
2019-02-22T05:14:15.188Z,102970.70
2019-02-22T05:15:20.400Z,102972.89
2019-02-22T05:16:25.415Z,102973.81
2019-02-22T05:17:35.671Z,102974.28
2019-02-22T05:18:39.620Z,102970.70
2019-02-22T05:19:47.742Z,102977.28
2019-02-22T05:20:53.162Z,102977.34
2019-02-22T05:21:58.639Z,102976.88
2019-02-22T05:23:07.149Z,102977.74
2019-02-22T05:24:10.402Z,102975.09
2019-02-22T05:25:15.478Z,102979.07
2019-02-22T05:26:20.558Z,102983.06
2019-02-22T05:27:25.668Z,102984.85
2019-02-22T05:28:30.967Z,102986.64
2019-02-22T05:29:35.963Z,102985.78
2019-02-22T05:30:41.444Z,102988.06
2019-02-22T05:31:46.780Z,102988.90
2019-02-22T05:32:51.729Z,102987.20
2019-02-22T05:33:56.732Z,102993.84
2019-02-22T05:35:02.232Z,102990.78
2019-02-22T05:36:07.644Z,102993.50
2019-02-22T05:37:12.815Z,102993.91
2019-02-22T05:38:18.047Z,102996.16
2019-02-22T05:39:23.010Z,102996.16
2019-02-22T05:40:28.060Z,102996.16
2019-02-22T05:41:33.528Z,103002.80
2019-02-22T05:42:39.362Z,103005.46
2019-02-22T05:43:44.386Z,103006.88
2019-02-22T05:44:49.765Z,103005.70
2019-02-22T05:45:55.282Z,103007.44
2019-02-22T05:47:00.802Z,103013.68
2019-02-22T05:48:06.508Z,103005.30
2019-02-22T05:49:11.521Z,103012.96
2019-02-22T05:50:16.512Z,103012.96
2019-02-22T05:51:21.526Z,103006.87
2019-02-22T05:52:27.038Z,103010.45
2019-02-22T05:53:32.187Z,103013.16
2019-02-22T05:54:37.222Z,103019.03
2019-02-22T05:55:44.219Z,103012.45
2019-02-22T05:56:49.493Z,103015.59
2019-02-22T05:57:54.996Z,103013.46
2019-02-22T05:59:00.312Z,103011.67
2019-02-22T06:00:06.069Z,103012.59
2019-02-22T06:01:11.323Z,103014.41
2019-02-22T06:02:16.343Z,103013.09
2019-02-22T06:03:21.683Z,103018.41
2019-02-22T06:04:26.694Z,103020.66
2019-02-22T06:05:31.786Z,103022.91
2019-02-22T06:06:37.044Z,103019.47
2019-02-22T06:07:42.167Z,103023.45
2019-02-22T06:08:47.316Z,103027.04
2019-02-22T06:09:52.487Z,103024.84
2019-02-22T06:10:57.664Z,103033.69
2019-02-22T06:12:02.705Z,103036.89
2019-02-22T06:13:07.750Z,103037.41
2019-02-22T06:14:12.797Z,103030.39
2019-02-22T06:15:17.866Z,103033.10
2019-02-22T06:16:22.954Z,103038.88
2019-02-22T06:17:28.651Z,103038.97
2019-02-22T06:18:33.913Z,103037.70
2019-02-22T06:19:39.324Z,103035.96
2019-02-22T06:20:44.491Z,103036.45
2019-02-22T06:21:50.757Z,103032.47
2019-02-22T06:22:55.739Z,103040.35
2019-02-22T06:24:02.708Z,103031.97
2019-02-22T06:25:07.935Z,103034.62
2019-02-22T06:26:13.005Z,103038.30
2019-02-22T06:27:18.672Z,103037.43
2019-02-22T06:28:23.791Z,103027.77
2019-02-22T06:29:28.854Z,103035.27
2019-02-22T06:30:34.237Z,103035.64
2019-02-22T06:31:39.188Z,103043.56
2019-02-22T06:32:44.482Z,103044.89
2019-02-22T06:33:49.846Z,103039.57
2019-02-22T06:34:54.815Z,103042.69
2019-02-22T06:36:00.171Z,103041.77
2019-02-22T06:37:05.298Z,103045.34
2019-02-22T06:38:10.584Z,103048.92
2019-02-22T06:39:15.986Z,103047.59
2019-02-22T06:40:21.229Z,103048.06
2019-02-22T06:41:26.245Z,103052.05
2019-02-22T06:42:31.257Z,103053.37
2019-02-22T06:43:36.211Z,103056.03
2019-02-22T06:44:41.218Z,103050.72
2019-02-22T06:45:46.674Z,103060.88
2019-02-22T06:46:51.765Z,103059.55
2019-02-22T06:47:56.833Z,103059.50
2019-02-22T06:49:01.964Z,103058.08
2019-02-22T06:50:07.293Z,103061.20
2019-02-22T06:51:12.370Z,103056.38
2019-02-22T06:52:17.369Z,103055.83
2019-02-22T06:53:22.436Z,103061.09
2019-02-22T06:54:27.537Z,103059.77
2019-02-22T06:55:32.487Z,103061.92
2019-02-22T06:56:37.521Z,103061.41
2019-02-22T06:57:42.952Z,103069.70
2019-02-22T06:58:48.176Z,103063.83
2019-02-22T06:59:53.124Z,103065.97
2019-02-22T07:00:58.801Z,103062.13
2019-02-22T07:02:04.115Z,103062.13
2019-02-22T07:03:09.239Z,103072.99
2019-02-22T07:04:14.621Z,103074.32
2019-02-22T07:05:19.652Z,103067.67
2019-02-22T07:06:24.655Z,103069.50
2019-02-22T07:07:30.182Z,103076.98
2019-02-22T07:08:35.669Z,103077.38
2019-02-22T07:09:40.706Z,103080.45
2019-02-22T07:11:16.799Z,103078.72
2019-02-22T07:12:27.277Z,103081.83
2019-02-22T07:13:32.351Z,103084.12
2019-02-22T07:14:37.485Z,103081.52
2019-02-22T07:15:42.592Z,103080.59
2019-02-22T07:16:47.716Z,103081.52
2019-02-22T07:17:52.765Z,103086.28
2019-02-22T07:18:58.179Z,103080.13
2019-02-22T07:20:03.161Z,103083.63
2019-02-22T07:21:08.534Z,103087.95
2019-02-22T07:22:13.955Z,103093.27
2019-02-22T07:23:19.411Z,103096.80
2019-02-22T07:24:24.413Z,103100.29
2019-02-22T07:25:29.514Z,103098.96
2019-02-22T07:26:34.883Z,103104.69
2019-02-22T07:27:39.872Z,103102.80
2019-02-22T07:28:44.960Z,103100.55
2019-02-22T07:29:50.109Z,103107.14
2019-02-22T07:30:55.495Z,103107.52
2019-02-22T07:32:05.753Z,103109.25
2019-02-22T07:33:08.121Z,103107.00
2019-02-22T07:34:13.170Z,103106.05
2019-02-22T07:35:18.925Z,103103.80
2019-02-22T07:36:23.883Z,103107.78
2019-02-22T07:37:29.094Z,103112.55
2019-02-22T07:38:34.231Z,103113.36
2019-02-22T07:39:39.370Z,103108.82
2019-02-22T07:40:44.700Z,103109.62
2019-02-22T07:41:49.741Z,103115.27
2019-02-22T07:42:55.035Z,103118.33
2019-02-22T07:44:00.094Z,103115.58
2019-02-22T07:45:05.895Z,103124.34
2019-02-22T07:46:10.910Z,103120.30
2019-02-22T07:47:16.232Z,103119.42
2019-02-22T07:48:21.239Z,103130.88
2019-02-22T07:49:28.930Z,103130.00
2019-02-22T07:50:34.680Z,103129.92
2019-02-22T07:51:40.284Z,103130.78
2019-02-22T07:52:45.380Z,103136.83
2019-02-22T07:53:50.746Z,103137.23
2019-02-22T07:54:56.129Z,103145.98
2019-02-22T07:56:01.210Z,103141.53
2019-02-22T07:57:06.227Z,103145.44
2019-02-22T07:58:11.313Z,103145.44
2019-02-22T07:59:16.471Z,103147.58
2019-02-22T08:00:21.605Z,103148.81
2019-02-22T08:01:27.123Z,103153.77
2019-02-22T08:02:32.227Z,103150.23
2019-02-22T08:03:37.567Z,103152.44
2019-02-22T08:04:42.828Z,103149.31
2019-02-22T08:05:48.240Z,103159.86
2019-02-22T08:06:53.250Z,103155.00
2019-02-22T08:07:58.260Z,103159.40
2019-02-22T08:09:04.820Z,103161.97
2019-02-22T08:10:10.053Z,103161.13
2019-02-22T08:11:15.190Z,103164.72
2019-02-22T08:12:20.592Z,103163.39
2019-02-22T08:13:26.070Z,103164.72
2019-02-22T08:14:31.047Z,103166.05
2019-02-22T08:15:36.008Z,103165.27
2019-02-22T08:16:41.006Z,103169.72
2019-02-22T08:17:46.017Z,103175.50
2019-02-22T08:19:00.976Z,103175.50
2019-02-22T08:19:57.744Z,103179.48
2019-02-22T08:21:03.173Z,103179.55
2019-02-22T08:22:08.461Z,103179.08
2019-02-22T08:23:13.639Z,103182.61
2019-02-22T08:24:19.253Z,103183.48
2019-02-22T08:25:24.349Z,103181.23
2019-02-22T08:26:29.783Z,103189.11
2019-02-22T08:27:34.894Z,103186.45
2019-02-22T08:28:40.151Z,103189.11
2019-02-22T08:29:45.849Z,103196.48
2019-02-22T08:30:50.818Z,103199.15
2019-02-22T08:31:56.580Z,103200.48
2019-02-22T08:33:01.913Z,103204.88
2019-02-22T08:34:07.038Z,103203.08
2019-02-22T08:35:12.106Z,103208.41
2019-02-22T08:36:17.105Z,103212.30
2019-02-22T08:37:22.604Z,103210.42
2019-02-22T08:38:28.182Z,103211.70
2019-02-22T08:39:34.525Z,103219.07
2019-02-22T08:40:39.496Z,103218.92
2019-02-22T08:41:44.457Z,103221.99
2019-02-22T08:42:49.722Z,103220.11
2019-02-22T08:43:54.882Z,103216.53
2019-02-22T08:44:59.999Z,103213.87
2019-02-22T08:46:05.086Z,103222.22
2019-02-22T08:47:10.074Z,103222.48
2019-02-22T08:48:15.324Z,103226.79
2019-02-22T08:49:20.567Z,103225.87
2019-02-22T08:50:25.524Z,103226.73
2019-02-22T08:51:30.538Z,103226.18
2019-02-22T08:52:35.894Z,103223.37
2019-02-22T08:53:40.832Z,103227.25
2019-02-22T08:54:47.309Z,103233.35
2019-02-22T08:55:52.516Z,103229.27
2019-02-22T08:56:57.469Z,103235.31
2019-02-22T08:58:02.618Z,103236.99
2019-02-22T08:59:07.946Z,103241.30
2019-02-22T09:00:13.388Z,103238.09
2019-02-22T09:01:18.311Z,103241.06
2019-02-22T09:02:23.276Z,103245.41
2019-02-22T09:03:28.623Z,103245.31
2019-02-22T09:04:33.602Z,103237.27
2019-02-22T09:05:38.682Z,103243.31
2019-02-22T09:06:43.657Z,103240.55
2019-02-22T09:07:48.820Z,103241.83
2019-02-22T09:08:53.824Z,103243.05
2019-02-22T09:09:58.770Z,103241.62
2019-02-22T09:11:04.449Z,103244.23
2019-02-22T09:12:09.450Z,103246.95
2019-02-22T09:13:14.738Z,103242.03
2019-02-22T09:14:20.094Z,103242.89
2019-02-22T09:15:25.490Z,103248.13
2019-02-22T09:16:30.596Z,103252.06
2019-02-22T09:17:35.904Z,103248.38
2019-02-22T09:18:41.276Z,103251.85
2019-02-22T09:19:46.415Z,103247.30
2019-02-22T09:20:51.430Z,103244.64
2019-02-22T09:21:56.430Z,103250.74
2019-02-22T09:23:01.398Z,103246.22
2019-02-22T09:24:06.857Z,103250.13
2019-02-22T09:25:11.906Z,103255.77
2019-02-22T09:26:17.250Z,103258.31
2019-02-22T09:27:22.316Z,103257.28
2019-02-22T09:28:27.708Z,103259.86
2019-02-22T09:29:32.718Z,103262.47
2019-02-22T09:30:38.082Z,103262.38
2019-02-22T09:31:43.148Z,103259.18
2019-02-22T09:32:48.648Z,103262.62
2019-02-22T09:33:53.592Z,103265.28
2019-02-22T09:34:58.853Z,103265.28
2019-02-22T09:36:03.897Z,103260.88
2019-02-22T09:37:09.527Z,103268.35
2019-02-22T09:38:15.127Z,103266.00
2019-02-22T09:39:20.127Z,103267.17
2019-02-22T09:40:25.325Z,103261.78
2019-02-22T09:41:30.709Z,103261.23
2019-02-22T09:42:35.962Z,103264.61
2019-02-22T09:43:40.906Z,103264.91
2019-02-22T09:44:45.886Z,103269.72
2019-02-22T09:45:51.244Z,103266.90
2019-02-22T09:46:56.381Z,103266.90
2019-02-22T09:48:01.409Z,103270.34
2019-02-22T09:49:06.523Z,103267.20
2019-02-22T09:50:12.217Z,103268.14
2019-02-22T09:51:17.448Z,103265.94
2019-02-22T09:52:22.522Z,103268.59
2019-02-22T09:53:27.908Z,103268.23
2019-02-22T09:54:33.373Z,103273.16
2019-02-22T09:55:38.375Z,103272.23
2019-02-22T09:56:43.685Z,103267.27
2019-02-22T09:57:49.025Z,103272.53
2019-02-22T09:58:54.152Z,103272.07
2019-02-22T09:59:59.503Z,103271.61
2019-02-22T10:01:04.937Z,103275.11
2019-02-22T10:02:10.040Z,103276.38
2019-02-22T10:03:15.283Z,103276.69
2019-02-22T10:04:20.198Z,103276.06
2019-02-22T10:05:25.255Z,103280.21
2019-02-22T10:06:30.683Z,103278.20
2019-02-22T10:07:35.674Z,103281.10
2019-02-22T10:08:40.685Z,103279.98
2019-02-22T10:09:46.038Z,103286.48
2019-02-22T10:10:50.983Z,103287.76
2019-02-22T10:11:56.375Z,103283.69
2019-02-22T10:13:01.367Z,103288.30
2019-02-22T10:14:07.160Z,103288.55
2019-02-22T10:15:12.486Z,103286.95
2019-02-22T10:16:17.554Z,103282.89
2019-02-22T10:17:22.514Z,103282.89
2019-02-22T10:18:27.555Z,103282.95
2019-02-22T10:19:33.034Z,103288.78
2019-02-22T10:20:38.823Z,103287.45
2019-02-22T10:21:44.019Z,103285.55
2019-02-22T10:22:48.974Z,103287.13
2019-02-22T10:23:54.159Z,103294.97
2019-02-22T10:24:59.098Z,103291.73
2019-02-22T10:26:04.176Z,103293.88
2019-02-22T10:27:11.955Z,103295.97
2019-02-22T10:28:18.111Z,103293.70
2019-02-22T10:29:22.871Z,103297.24
2019-02-22T10:30:27.897Z,103299.84
2019-02-22T10:31:33.286Z,103290.11
2019-02-22T10:32:38.313Z,103295.84
2019-02-22T10:33:43.376Z,103293.17
2019-02-22T10:34:48.769Z,103291.84
2019-02-22T10:35:53.881Z,103293.48
2019-02-22T10:36:59.188Z,103294.75
2019-02-22T10:38:04.607Z,103289.71
2019-02-22T10:39:09.642Z,103292.31
2019-02-22T10:40:14.734Z,103290.58
2019-02-22T10:41:19.864Z,103292.38
2019-02-22T10:42:25.229Z,103289.71
2019-02-22T10:43:30.290Z,103292.14
2019-02-22T10:44:35.969Z,103294.58
2019-02-22T10:45:40.969Z,103296.03
2019-02-22T10:46:46.028Z,103296.66
2019-02-22T10:47:50.953Z,103300.83
2019-02-22T10:48:56.083Z,103293.23
2019-02-22T10:50:01.741Z,103298.00
2019-02-22T10:51:06.776Z,103300.61
2019-02-22T10:52:11.984Z,103310.81
2019-02-22T10:53:17.061Z,103305.47
2019-02-22T10:54:22.074Z,103303.58
2019-02-22T10:55:27.171Z,103301.25
2019-02-22T10:56:32.220Z,103310.52
2019-02-22T10:57:37.231Z,103302.05
2019-02-22T10:58:42.242Z,103297.11
2019-02-22T10:59:47.309Z,103295.84
2019-02-22T11:00:52.655Z,103301.48
2019-02-22T11:01:57.972Z,103297.78
2019-02-22T11:03:03.258Z,103301.66
2019-02-22T11:04:08.362Z,103299.12
2019-02-22T11:05:14.013Z,103297.52
2019-02-22T11:06:19.159Z,103296.83
2019-02-22T11:07:24.501Z,103295.92
2019-02-22T11:08:29.820Z,103299.52
2019-02-22T11:09:34.847Z,103296.45
2019-02-22T11:10:40.080Z,103296.50
2019-02-22T11:11:45.265Z,103297.09
2019-02-22T11:12:50.364Z,103295.52
2019-02-22T11:13:55.742Z,103298.32
2019-02-22T11:15:00.720Z,103296.41
2019-02-22T11:16:05.848Z,103297.68
2019-02-22T11:17:11.280Z,103298.55
2019-02-22T11:18:16.340Z,103296.64
2019-02-22T11:19:21.434Z,103299.70
2019-02-22T11:20:26.909Z,103292.85
2019-02-22T11:21:31.930Z,103297.63
2019-02-22T11:22:36.867Z,103294.48
2019-02-22T11:23:42.353Z,103296.28
2019-02-22T11:24:47.415Z,103301.56
2019-02-22T11:25:52.416Z,103299.36
2019-02-22T11:26:57.510Z,103303.66
2019-02-22T11:28:02.583Z,103298.72
2019-02-22T11:29:07.747Z,103302.25
2019-02-22T11:30:13.019Z,103300.52
2019-02-22T11:31:18.062Z,103300.05
2019-02-22T11:32:23.407Z,103298.14
2019-02-22T11:33:28.396Z,103298.54
2019-02-22T11:34:33.424Z,103301.91
2019-02-22T11:35:38.350Z,103300.39
2019-02-22T11:36:43.442Z,103303.46
2019-02-22T11:37:48.583Z,103302.66
2019-02-22T11:38:53.650Z,103299.41
2019-02-22T11:39:58.805Z,103300.92
2019-02-22T11:41:03.773Z,103296.69
2019-02-22T11:42:08.853Z,103296.86
2019-02-22T11:43:13.896Z,103302.38
2019-02-22T11:44:19.246Z,103303.48
2019-02-22T11:45:24.434Z,103302.97
2019-02-22T11:46:29.362Z,103303.61
2019-02-22T11:47:34.417Z,103299.77
2019-02-22T11:48:39.623Z,103297.67
2019-02-22T11:49:44.971Z,103304.02
2019-02-22T11:50:50.027Z,103307.19
2019-02-22T11:51:55.965Z,103312.59
2019-02-22T11:53:01.394Z,103308.83
2019-02-22T11:54:06.472Z,103311.67
2019-02-22T11:55:11.849Z,103313.57
2019-02-22T11:56:17.345Z,103307.13
2019-02-22T11:57:22.533Z,103308.73
2019-02-22T11:58:27.806Z,103304.80
2019-02-22T11:59:32.893Z,103306.59
2019-02-22T12:00:38.333Z,103309.67
2019-02-22T12:01:44.251Z,103306.83
2019-02-22T12:02:49.468Z,103306.66
2019-02-22T12:03:55.143Z,103308.53
2019-02-22T12:05:00.517Z,103309.62
2019-02-22T12:06:05.500Z,103300.01
2019-02-22T12:07:10.900Z,103305.41
2019-02-22T12:08:15.881Z,103307.66
2019-02-22T12:09:21.012Z,103300.64
2019-02-22T12:10:26.241Z,103305.74
2019-02-22T12:11:31.637Z,103304.30
2019-02-22T12:12:36.805Z,103301.86
2019-02-22T12:13:42.795Z,103295.11
2019-02-22T12:14:51.904Z,103294.93
2019-02-22T12:15:54.880Z,103299.62
2019-02-22T12:16:59.974Z,103296.78
2019-02-22T12:18:05.013Z,103291.63
2019-02-22T12:19:10.371Z,103292.42
2019-02-22T12:20:15.617Z,103294.92
2019-02-22T12:21:23.046Z,103292.06
2019-02-22T12:22:27.752Z,103294.09
2019-02-22T12:23:32.740Z,103291.96
2019-02-22T12:24:38.031Z,103290.84
2019-02-22T12:25:44.540Z,103288.28
2019-02-22T12:26:51.203Z,103288.48